Topsham, Maine
Current Conditions -  °F | °C
As of 5:53 PM on Saturday 20 Dec 2014 (Local Time) from KIWI Reporting Station
Clear Clear  
Wind Chill: 24°   Ceiling: Unl
Heat Index: 24°   Visibility: 10mi
Dew Point: 18°   Wind: 3mph
Humidity: 77%   Direction: 50°NE
Pressure: 30.37"   Gusts: NA
Location:  43.93°N, 69.96°W
Report Text: KIWI 202253Z AUTO 05003KT 10SM CLR M04/M08 A3037 RMK AO2 SLP284 T10441078
Loading
Personal Weather Stations






























Interactive Weather Map New forecast layout! Learn more

10-Day Weather Forecast

Advertisements
Track Severe Weather on mobile